Time;durP1;ratioP1;P1;durP2;ratioP2;P2;SDS_P1;SDS_P2;PMS_P1;PMS_P2;Temp;Humidity;BMP_temperature;BMP_pressure;BME280_temperature;BME280_humidity;BME280_pressure;Samples;Min_cycle;Max_cycle;Signal;HPM_P1;HPM_P2
2022/05/04 00:00:08;;;;;;;15.13;5.63;;;12.20;90.40;;;9.23;93.26;100780.47;5032193;28;20136;-70
2022/05/04 00:02:44;;;;;;;18.52;5.57;;;12.20;90.50;;;9.21;93.51;100785.25;5032521;28;20034;-70
2022/05/04 00:05:12;;;;;;;11.20;5.45;;;12.10;90.90;;;9.13;94.09;100779.81;5032007;28;20053;-71
2022/05/04 00:07:40;;;;;;;13.80;6.13;;;12.10;91.20;;;9.24;93.35;100784.91;5031974;28;20140;-71
2022/05/04 00:10:09;;;;;;;13.40;5.60;;;12.00;91.20;;;9.05;94.43;100777.09;5032503;28;20050;-70
2022/05/04 00:12:36;;;;;;;10.30;5.32;;;12.00;91.60;;;9.09;94.13;100778.47;5032142;28;20128;-70
2022/05/04 00:15:04;;;;;;;15.35;5.90;;;11.90;91.80;;;8.96;95.08;100774.34;5030374;28;20052;-70
2022/05/04 00:17:31;;;;;;;14.38;5.88;;;11.90;92.10;;;8.99;94.79;100773.19;5031821;28;20128;-71
2022/05/04 00:19:59;;;;;;;13.57;6.03;;;11.90;92.10;;;8.89;95.44;100776.06;5031863;28;20045;-70
2022/05/04 00:22:28;;;;;;;12.90;5.88;;;11.90;92.30;;;8.84;95.32;100781.13;5032055;28;20460;-71
2022/05/04 00:24:56;;;;;;;13.07;5.70;;;11.80;92.30;;;8.65;96.27;100778.72;5032649;28;20045;-70
2022/05/04 00:27:24;;;;;;;13.38;6.15;;;11.80;92.40;;;8.53;97.40;100776.31;5032047;28;20407;-70
2022/05/04 00:29:51;;;;;;;17.15;6.55;;;11.80;92.70;;;8.54;97.42;100780.72;5030595;28;20053;-71
2022/05/04 00:32:18;;;;;;;17.15;6.20;;;11.70;93.10;;;8.49;97.49;100780.38;5028911;28;20069;-71
2022/05/04 00:34:47;;;;;;;19.00;6.45;;;11.70;93.10;;;8.39;98.37;100774.19;5032081;28;20103;-70
2022/05/04 00:37:14;;;;;;;16.13;6.22;;;11.70;93.40;;;8.34;98.46;100776.53;5012684;28;20088;-71
2022/05/04 00:39:43;;;;;;;22.33;6.32;;;11.50;93.10;;;8.26;98.27;100776.50;5022387;28;20132;-70
2022/05/04 00:42:13;;;;;;;14.65;5.95;;;11.50;93.20;;;8.22;99.60;100776.84;5031659;28;20037;-70
2022/05/04 00:44:41;;;;;;;14.40;6.20;;;11.50;93.70;;;8.19;99.82;100771.75;5030679;28;20045;-71
2022/05/04 00:47:09;;;;;;;16.73;6.20;;;11.40;93.80;;;8.14;100.00;100776.78;5031648;28;20116;-71
2022/05/04 00:49:38;;;;;;;13.40;5.95;;;11.40;93.80;;;8.01;100.00;100781.81;5025393;28;20125;-70
2022/05/04 00:52:06;;;;;;;14.57;5.93;;;11.30;94.10;;;8.01;100.00;100771.84;5031516;28;20099;-71
2022/05/04 00:54:35;;;;;;;19.00;7.00;;;11.30;94.40;;;8.16;100.00;100772.06;5030961;28;20055;-70
2022/05/04 00:57:06;;;;;;;16.20;6.50;;;11.20;94.50;;;8.17;100.00;100779.19;5010524;28;20042;-70
2022/05/04 00:59:33;;;;;;;14.57;6.10;;;11.10;95.20;;;8.09;100.00;100762.03;5013383;28;20092;-70
2022/05/04 01:02:00;;;;;;;15.02;6.50;;;11.10;95.20;;;8.08;100.00;100769.31;5031523;28;20069;-71
2022/05/04 01:04:27;;;;;;;14.20;6.25;;;11.10;95.20;;;8.13;100.00;100768.81;5032652;28;20047;-71
2022/05/04 01:06:55;;;;;;;17.40;5.95;;;11.10;95.30;;;8.23;100.00;100764.97;5025797;28;20422;-70
2022/05/04 01:09:22;;;;;;;11.90;6.15;;;11.10;95.50;;;8.25;100.00;100761.28;5031089;28;20067;-71
2022/05/04 01:11:50;;;;;;;17.23;7.22;;;11.10;95.60;;;8.15;100.00;100767.66;5031163;28;20065;-70
2022/05/04 01:14:19;;;;;;;13.00;6.00;;;11.00;95.80;;;8.00;100.00;100772.84;5031905;28;20071;-70
2022/05/04 01:16:49;;;;;;;17.02;6.60;;;11.00;95.80;;;7.92;100.00;100770.09;5030405;28;20155;-70
2022/05/04 01:19:17;;;;;;;15.30;6.63;;;11.00;96.10;;;8.01;100.00;100768.25;5030683;28;20144;-71
2022/05/04 01:21:44;;;;;;;15.93;6.65;;;11.00;96.10;;;8.22;100.00;100767.84;5024829;28;20060;-71
2022/05/04 01:24:13;;;;;;;16.08;6.65;;;10.90;96.30;;;8.12;100.00;100770.69;5031294;28;20079;-71
2022/05/04 01:26:40;;;;;;;15.30;6.38;;;10.90;96.60;;;8.06;100.00;100771.34;5029454;28;20409;-70
2022/05/04 01:29:07;;;;;;;14.45;5.88;;;10.90;96.60;;;8.11;100.00;100774.44;5030296;28;20091;-70
2022/05/04 01:31:34;;;;;;;13.10;5.93;;;10.90;96.50;;;8.20;99.45;100768.00;5030763;28;20038;-71
2022/05/04 01:34:02;;;;;;;12.50;5.65;;;10.90;96.20;;;8.37;97.64;100773.50;5030505;28;20539;-71
2022/05/04 01:36:29;;;;;;;15.25;6.70;;;10.90;96.00;;;8.43;97.42;100775.59;5017927;28;20045;-71
2022/05/04 01:38:56;;;;;;;15.57;6.70;;;10.80;96.00;;;8.32;98.00;100765.88;5016581;28;20041;-70
2022/05/04 01:44:10;;;;;;;12.68;5.95;;;10.90;96.50;;;8.01;99.60;100768.25;5032115;28;20080;-71
2022/05/04 01:46:38;;;;;;;15.73;6.80;;;10.90;96.40;;;7.91;100.00;100778.38;5030291;28;20037;-71
2022/05/04 01:49:05;;;;;;;14.00;6.40;;;10.80;96.50;;;7.82;100.00;100777.47;5030227;28;20112;-71
2022/05/04 01:51:32;;;;;;;13.68;6.07;;;10.80;96.50;;;7.80;100.00;100783.03;5030550;28;20045;-70
2022/05/04 01:53:59;;;;;;;10.82;5.82;;;10.80;96.60;;;7.78;100.00;100779.66;5031225;28;20099;-71
2022/05/04 01:56:28;;;;;;;10.30;6.00;;;10.70;96.70;;;7.79;100.00;100781.38;5028921;28;20051;-70
2022/05/04 01:58:55;;;;;;;15.75;6.63;;;10.70;96.90;;;7.89;100.00;100773.13;5029673;28;20116;-70
2022/05/04 02:01:22;;;;;;;12.35;6.28;;;10.70;96.90;;;8.01;100.00;100779.97;5030458;28;20049;-70
2022/05/04 02:03:50;;;;;;;14.55;6.22;;;10.70;96.90;;;7.90;100.00;100780.25;5030127;28;20055;-70
2022/05/04 02:06:17;;;;;;;15.15;6.43;;;10.90;97.30;;;8.08;99.40;100773.91;5028251;28;20083;-70
2022/05/04 02:08:45;;;;;;;14.35;6.38;;;10.70;96.90;;;7.90;100.00;100771.25;5029582;28;20038;-70
2022/05/04 02:11:13;;;;;;;15.02;7.07;;;10.70;97.20;;;7.90;100.00;100771.25;5029966;28;20438;-71
2022/05/04 02:13:41;;;;;;;16.08;6.60;;;10.70;97.20;;;7.88;100.00;100773.28;5028678;28;20045;-70
2022/05/04 02:16:09;;;;;;;13.85;5.97;;;10.60;97.30;;;7.85;100.00;100776.31;5031072;28;20107;-70
2022/05/04 02:18:36;;;;;;;15.88;6.88;;;10.60;97.40;;;7.91;100.00;100773.81;5029330;28;20033;-70
2022/05/04 02:21:04;;;;;;;18.73;7.18;;;10.60;97.40;;;7.80;100.00;100777.63;5030166;28;20053;-71
2022/05/04 02:23:31;;;;;;;13.98;6.63;;;10.60;97.50;;;7.61;100.00;100777.84;5029154;28;20490;-70
2022/05/04 02:25:58;;;;;;;13.80;6.28;;;10.60;97.70;;;7.47;100.00;100775.72;5029753;28;20128;-70
2022/05/04 02:28:27;;;;;;;17.98;6.70;;;10.50;97.60;;;7.38;100.00;100777.50;5029831;28;20065;-70
2022/05/04 02:30:55;;;;;;;14.25;6.45;;;10.50;97.60;;;7.30;100.00;100775.59;5027236;28;20037;-72
2022/05/04 02:33:22;;;;;;;18.10;7.00;;;10.40;97.80;;;7.38;100.00;100767.53;5030412;28;20939;-71
2022/05/04 02:38:46;;;;;;;17.02;7.22;;;10.40;97.90;;;7.69;100.00;100768.91;4987505;28;20089;-72
2022/05/04 02:41:13;;;;;;;16.15;7.15;;;10.40;97.90;;;7.54;100.00;100760.53;5010460;28;20099;-71
2022/05/04 02:43:41;;;;;;;14.18;7.15;;;10.40;97.80;;;7.57;100.00;100771.91;5030233;28;20065;-72
2022/05/04 02:46:17;;;;;;;15.43;6.60;;;10.30;97.80;;;7.59;100.00;100763.63;5031172;28;20090;-71
2022/05/04 02:48:46;;;;;;;13.15;6.03;;;10.30;97.80;;;7.61;100.00;100773.28;5026556;28;20038;-71
2022/05/04 02:51:14;;;;;;;16.00;7.22;;;10.30;97.60;;;7.46;100.00;100769.44;5033455;28;20041;-71
2022/05/04 02:53:42;;;;;;;17.05;6.88;;;10.30;98.20;;;7.37;100.00;100768.56;5023860;28;20072;-71
2022/05/04 02:56:10;;;;;;;18.95;7.43;;;10.30;98.20;;;7.60;100.00;100770.75;5030223;28;20087;-72
2022/05/04 02:58:38;;;;;;;14.30;7.03;;;10.30;97.90;;;7.69;99.70;100769.78;5028995;28;20776;-71
2022/05/04 03:02:26;;;;;;;14.70;6.97;;;10.30;97.70;;;7.55;100.00;100773.06;5028017;28;20444;-71
2022/05/04 03:04:02;;;;;;;16.60;7.00;;;10.30;97.90;;;7.50;100.00;100767.28;5030403;28;20049;-71
2022/05/04 03:06:29;;;;;;;17.42;6.40;;;10.30;97.90;;;7.36;100.00;100764.13;5019591;28;20046;-72
2022/05/04 03:08:57;;;;;;;14.48;7.03;;;10.20;97.90;;;7.21;100.00;100771.13;5023313;28;20119;-71
2022/05/04 03:14:09;;;;;;;20.67;7.13;;;10.10;98.10;;;7.13;100.00;100768.34;5029623;28;20510;-71
2022/05/04 03:16:37;;;;;;;18.80;7.85;;;10.10;98.30;;;7.00;100.00;100769.56;5029319;28;20047;-72
2022/05/04 03:19:07;;;;;;;18.88;7.93;;;10.00;98.50;;;6.99;100.00;100767.91;5031727;28;20129;-71
2022/05/04 03:21:34;;;;;;;15.18;7.43;;;10.00;98.50;;;7.09;100.00;100766.97;5029519;28;20119;-71
2022/05/04 03:24:02;;;;;;;19.13;7.22;;;10.00;98.50;;;7.20;100.00;100759.44;5033794;28;20116;-71
2022/05/04 03:26:29;;;;;;;14.65;7.57;;;10.00;98.50;;;7.14;100.00;100760.09;5032059;28;20469;-71
2022/05/04 03:28:57;;;;;;;20.40;7.50;;;10.00;98.70;;;7.03;100.00;100771.97;5032957;28;20074;-72
2022/05/04 03:31:24;;;;;;;16.25;7.57;;;10.00;98.90;;;6.99;100.00;100759.78;5033020;28;20049;-71
2022/05/04 03:33:51;;;;;;;19.15;7.90;;;9.90;99.20;;;6.84;100.00;100762.16;5028172;28;20144;-71
2022/05/04 03:36:20;;;;;;;16.98;7.65;;;9.90;99.20;;;6.71;100.00;100761.69;5022609;28;20050;-72
2022/05/04 03:38:47;;;;;;;19.35;8.30;;;9.90;99.30;;;6.57;100.00;100767.66;5020053;28;20124;-71
2022/05/04 03:41:15;;;;;;;18.48;7.72;;;9.80;99.10;;;6.53;100.00;100769.81;5032397;28;20075;-72
2022/05/04 03:43:42;;;;;;;14.05;7.60;;;9.80;99.30;;;6.47;100.00;100762.28;5034091;28;20047;-69
2022/05/04 03:46:15;;;;;;;15.82;7.60;;;9.70;99.40;;;6.45;100.00;100767.84;5033903;28;20041;-72
2022/05/04 03:48:43;;;;;;;18.15;7.63;;;9.70;99.60;;;6.53;100.00;100771.63;5032563;28;20490;-73
2022/05/04 03:51:10;;;;;;;17.20;6.88;;;9.60;99.80;;;6.58;100.00;100764.75;5032424;28;20068;-71
2022/05/04 03:53:39;;;;;;;19.85;7.90;;;9.60;99.90;;;6.60;100.00;100765.47;5033460;28;20034;-71
2022/05/04 03:56:07;;;;;;;16.70;7.30;;;9.50;99.90;;;6.50;100.00;100761.97;5034169;28;20048;-71
2022/05/04 03:58:37;;;;;;;18.20;8.32;;;9.50;99.90;;;6.41;100.00;100773.69;5031999;28;20047;-71
2022/05/04 04:01:04;;;;;;;23.83;8.70;;;9.50;99.90;;;6.59;100.00;100761.06;5032377;28;20045;-71
2022/05/04 04:03:31;;;;;;;14.98;6.90;;;9.40;99.90;;;6.58;100.00;100767.47;5033112;28;20120;-71
2022/05/04 04:05:59;;;;;;;16.02;7.78;;;9.40;99.90;;;6.64;100.00;100763.31;5033896;28;20767;-71
2022/05/04 04:08:26;;;;;;;19.77;8.15;;;9.40;99.90;;;6.56;100.00;100758.66;5043849;28;20038;-71
2022/05/04 04:10:55;;;;;;;20.42;8.38;;;9.40;99.90;;;6.65;100.00;100759.63;5032396;28;20049;-71
2022/05/04 04:13:23;;;;;;;20.50;8.13;;;9.40;99.90;;;6.81;100.00;100750.81;5033377;28;20127;-71
2022/05/04 04:15:51;;;;;;;14.30;7.45;;;9.40;99.90;;;6.57;100.00;100754.97;5031450;28;20056;-71
2022/05/04 04:18:19;;;;;;;18.50;8.35;;;9.40;99.90;;;6.64;100.00;100758.78;5031844;28;20049;-70
2022/05/04 04:23:31;;;;;;;17.55;7.72;;;9.40;99.90;;;6.72;100.00;100759.84;5033064;28;20080;-73
2022/05/04 04:26:00;;;;;;;18.80;7.40;;;9.40;99.90;;;6.96;100.00;100762.78;5027319;28;20052;-74
2022/05/04 04:28:28;;;;;;;21.38;8.50;;;9.40;99.90;;;7.12;100.00;100767.50;5031484;28;20148;-74
2022/05/04 04:30:55;;;;;;;20.00;7.93;;;9.50;99.90;;;7.27;100.00;100765.06;5031116;28;20137;-73
2022/05/04 04:33:26;;;;;;;17.33;7.90;;;9.50;99.90;;;7.21;100.00;100766.53;5032779;28;20143;-71
2022/05/04 04:35:54;;;;;;;15.20;7.75;;;9.50;99.90;;;7.18;100.00;100766.03;5032804;28;20060;-71
2022/05/04 04:38:21;;;;;;;21.38;8.30;;;9.60;99.90;;;7.42;100.00;100768.06;5031555;28;20045;-71
2022/05/04 04:40:50;;;;;;;19.15;7.97;;;9.60;99.90;;;7.38;100.00;100770.22;5031745;28;20038;-71
2022/05/04 04:43:19;;;;;;;18.88;7.88;;;9.60;99.90;;;7.49;100.00;100773.72;5025878;28;20555;-77
2022/05/04 04:45:47;;;;;;;17.40;8.05;;;9.70;99.90;;;7.54;100.00;100777.66;5031346;28;20041;-70
2022/05/04 04:48:16;;;;;;;14.75;7.90;;;9.70;99.90;;;7.58;100.00;100778.19;5031058;28;20701;-70
2022/05/04 04:50:43;;;;;;;18.05;7.85;;;9.80;99.90;;;7.63;100.00;100774.00;5031758;28;20116;-70
2022/05/04 04:53:10;;;;;;;26.85;9.10;;;9.80;99.90;;;7.73;99.10;100779.31;5032125;28;20049;-72
2022/05/04 04:55:38;;;;;;;20.77;7.95;;;9.80;99.90;;;7.75;98.27;100781.81;5028360;28;20116;-72
2022/05/04 04:58:05;;;;;;;23.40;8.85;;;9.90;99.80;;;7.79;99.13;100778.66;5031167;28;20073;-72
2022/05/04 05:00:34;;;;;;;21.42;8.50;;;9.90;99.90;;;7.82;98.97;100772.94;5016850;28;20045;-72
2022/05/04 05:03:02;;;;;;;14.18;7.93;;;10.00;99.90;;;7.95;97.41;100785.19;5032416;28;20056;-72
2022/05/04 05:05:29;;;;;;;17.55;8.40;;;10.00;99.40;;;7.94;97.79;100786.16;5031806;28;20053;-72
2022/05/04 05:07:56;;;;;;;20.38;8.57;;;10.10;99.30;;;8.03;97.39;100779.78;5030955;28;20116;-72
2022/05/04 05:10:23;;;;;;;22.20;9.38;;;10.10;99.00;;;8.16;96.28;100788.31;5031438;28;20125;-72
2022/05/04 05:12:51;;;;;;;27.55;8.93;;;10.10;98.60;;;8.27;95.77;100784.50;5029518;28;20103;-72
2022/05/04 05:18:06;;;;;;;20.75;7.95;;;10.20;98.20;;;8.46;93.78;100780.69;5015076;28;20048;-72
2022/05/04 05:20:34;;;;;;;20.80;8.18;;;10.30;98.20;;;8.46;93.74;100791.53;5030908;28;20565;-72
2022/05/04 05:23:03;;;;;;;27.50;9.88;;;10.30;98.20;;;8.57;93.63;100783.09;5031910;28;21576;-72
2022/05/04 05:25:32;;;;;;;23.40;8.70;;;10.40;98.00;;;8.66;93.28;100783.13;5030656;28;20670;-72
2022/05/04 05:28:00;;;;;;;18.90;8.13;;;10.40;97.50;;;8.70;92.15;100774.50;5029150;28;20047;-72
2022/05/04 05:30:27;;;;;;;20.38;9.18;;;10.50;97.30;;;8.78;92.37;100779.94;5030011;28;20125;-72
2022/05/04 05:32:54;;;;;;;19.45;8.10;;;10.50;97.70;;;8.89;91.17;100773.34;5031816;28;20048;-72
2022/05/04 05:35:23;;;;;;;21.20;8.00;;;10.60;97.10;;;9.06;90.47;100784.22;5030869;28;20044;-72
2022/05/04 05:37:50;;;;;;;22.60;9.07;;;10.70;97.00;;;9.16;89.33;100784.91;5030266;28;20041;-72
2022/05/04 05:40:17;;;;;;;21.00;8.07;;;10.70;96.60;;;9.25;89.17;100778.44;5030324;28;20060;-72
2022/05/04 05:42:45;;;;;;;20.15;8.60;;;10.80;96.40;;;9.26;88.56;100774.72;5028828;28;20492;-72
2022/05/04 05:45:12;;;;;;;20.00;8.45;;;10.80;95.70;;;9.48;86.92;100772.31;5030177;28;20561;-72
2022/05/04 05:47:40;;;;;;;28.10;9.13;;;10.90;95.70;;;9.38;88.35;100784.22;5021809;28;20076;-72
2022/05/04 05:50:10;;;;;;;18.40;8.60;;;11.00;95.60;;;9.54;87.00;100777.09;5029595;28;20047;-73
2022/05/04 05:52:38;;;;;;;21.20;9.50;;;11.00;95.00;;;9.67;86.00;100782.00;5028188;28;20397;-72
2022/05/04 05:55:07;;;;;;;19.75;8.30;;;11.10;94.60;;;9.67;85.44;100779.28;5032185;28;20046;-72
2022/05/04 05:57:35;;;;;;;21.10;9.13;;;11.20;94.40;;;9.85;85.10;100779.94;5029709;28;20589;-73
2022/05/04 06:00:03;;;;;;;19.08;9.10;;;11.20;94.50;;;9.92;84.56;100777.38;5029877;28;20046;-72
2022/05/04 06:02:39;;;;;;;16.13;8.32;;;11.40;93.80;;;10.04;84.66;100775.13;5029806;28;20113;-72
2022/05/04 06:05:07;;;;;;;21.05;9.15;;;11.40;94.00;;;10.30;84.97;100775.75;5029883;28;20120;-72
2022/05/04 06:07:34;;;;;;;21.15;8.80;;;11.50;94.50;;;10.50;83.09;100778.03;5027290;28;20045;-72
2022/05/04 06:10:03;;;;;;;21.83;8.90;;;11.70;94.00;;;10.57;81.69;100784.47;5022405;28;20042;-73
2022/05/04 06:12:31;;;;;;;21.13;8.90;;;11.70;92.90;;;10.71;81.39;100780.13;5028456;28;20561;-72
2022/05/04 06:14:58;;;;;;;29.00;9.25;;;11.90;92.60;;;10.79;81.24;100777.34;5030662;28;20463;-73
2022/05/04 06:17:25;;;;;;;23.23;9.23;;;12.00;92.20;;;11.04;80.82;100779.91;5029973;28;20049;-73
2022/05/04 06:19:52;;;;;;;22.65;8.63;;;12.20;92.40;;;11.24;80.45;100775.66;5027445;28;20156;-73
2022/05/04 06:22:20;;;;;;;21.80;8.07;;;12.40;91.90;;;11.59;78.61;100772.47;5027821;28;20036;-72
2022/05/04 06:24:47;;;;;;;20.70;8.60;;;12.60;90.90;;;11.57;78.62;100775.38;5030774;28;20136;-72
2022/05/04 06:27:16;;;;;;;23.38;8.82;;;12.90;90.20;;;11.91;77.40;100768.59;5027787;28;20045;-73
2022/05/04 06:35:13;;;;;;;22.23;8.57;;;13.80;87.00;;;14.82;64.73;100767.84;5030199;28;20072;-74
2022/05/04 06:37:40;;;;;;;21.85;9.25;;;14.00;85.60;;;15.72;61.53;100763.94;5029341;28;20087;-74
2022/05/04 06:40:09;;;;;;;18.67;9.18;;;14.20;85.00;;;16.26;59.08;100770.19;5029528;28;20069;-73
2022/05/04 06:42:39;;;;;;;17.33;8.10;;;14.30;84.10;;;15.95;58.79;100764.34;5029811;28;20049;-74
2022/05/04 06:45:08;;;;;;;18.67;8.77;;;14.50;83.80;;;14.50;65.90;100765.81;5030895;28;20049;-73
2022/05/04 06:47:35;;;;;;;28.75;9.52;;;14.60;85.90;;;13.80;68.52;100779.53;5029664;28;20069;-73
2022/05/04 06:50:04;;;;;;;24.10;9.23;;;14.70;84.90;;;13.95;66.43;100779.41;5029512;28;20486;-73
2022/05/04 06:52:33;;;;;;;17.23;8.23;;;14.80;83.20;;;14.13;66.27;100781.66;5029558;28;20042;-73
2022/05/04 06:55:00;;;;;;;19.17;9.05;;;14.70;82.60;;;14.07;65.37;100781.41;5036316;28;20472;-73
2022/05/04 06:57:27;;;;;;;16.80;9.27;;;14.80;82.40;;;13.71;65.42;100783.44;5014118;28;20046;-73
2022/05/04 06:59:57;;;;;;;23.95;10.00;;;14.80;81.80;;;13.39;66.78;100783.81;5025247;28;20038;-74
2022/05/04 07:02:25;;;;;;;22.15;9.30;;;14.70;81.70;;;13.36;67.63;100783.38;5033340;28;20509;-73
2022/05/04 07:04:52;;;;;;;27.58;9.57;;;14.70;82.10;;;13.09;69.72;100791.28;5036515;28;20501;-74
2022/05/04 07:07:19;;;;;;;21.90;9.55;;;14.70;82.70;;;13.40;71.33;100777.34;5030389;28;20076;-73
2022/05/04 07:09:46;;;;;;;23.38;9.57;;;14.70;84.50;;;13.26;71.17;100775.47;5032989;28;20111;-74
2022/05/04 07:12:13;;;;;;;22.48;9.63;;;14.80;84.20;;;13.16;71.56;100774.97;5033648;28;20048;-74
2022/05/04 07:14:41;;;;;;;19.10;10.27;;;14.70;83.50;;;13.00;73.42;100782.34;5035667;28;20127;-74
2022/05/04 07:17:09;;;;;;;22.02;10.63;;;14.70;84.80;;;13.13;71.32;100783.53;5033327;28;20042;-73
2022/05/04 07:19:37;;;;;;;17.13;9.80;;;14.70;83.30;;;13.42;71.79;100780.72;5033143;28;20168;-73
2022/05/04 07:22:04;;;;;;;19.17;10.13;;;14.80;84.30;;;13.71;69.08;100784.31;5033118;28;20396;-74
2022/05/04 07:24:32;;;;;;;24.85;10.73;;;14.90;83.00;;;13.87;70.52;100783.16;5033948;28;20084;-74
2022/05/04 07:26:59;;;;;;;22.08;10.43;;;14.90;84.10;;;13.67;72.26;100783.03;5033112;28;20038;-74
2022/05/04 07:29:26;;;;;;;22.58;11.52;;;15.00;84.50;;;13.72;69.23;100779.69;5031088;28;20060;-74
2022/05/04 07:31:53;;;;;;;19.88;10.30;;;15.10;83.20;;;13.57;69.66;100775.13;5032972;28;20099;-74
2022/05/04 07:34:22;;;;;;;20.33;11.05;;;15.10;82.30;;;13.56;68.63;100787.13;5034165;28;20445;-74
2022/05/04 07:36:49;;;;;;;22.77;11.15;;;15.00;81.50;;;13.72;68.97;100785.16;5032599;28;20095;-73
2022/05/04 07:44:42;;;;;;;23.75;10.82;;;15.10;81.20;;;13.32;68.68;100796.59;5034329;28;20045;-73
2022/05/04 07:47:09;;;;;;;20.67;10.93;;;15.10;81.20;;;13.32;70.56;100791.13;5030988;28;20501;-73
2022/05/04 07:49:38;;;;;;;25.00;11.48;;;15.10;82.00;;;13.56;69.91;100792.59;5032179;28;20127;-73
2022/05/04 07:52:06;;;;;;;23.10;11.23;;;15.20;82.10;;;13.05;72.56;100798.19;5032750;28;20073;-73
2022/05/04 07:54:34;;;;;;;27.15;11.65;;;15.00;82.90;;;13.48;73.24;100790.84;5033941;28;20169;-73
2022/05/04 07:57:01;;;;;;;23.35;12.55;;;15.10;83.90;;;13.74;69.98;100802.19;5032576;28;20080;-73
2022/05/04 07:59:28;;;;;;;25.58;11.25;;;15.20;82.90;;;13.75;69.26;100807.47;5031776;28;20118;-73
2022/05/04 08:04:42;;;;;;;23.65;11.50;;;15.30;81.30;;;13.77;70.69;100799.09;5033381;28;20056;-73
2022/05/04 08:07:09;;;;;;;25.15;11.43;;;15.40;82.10;;;14.08;68.80;100795.91;5032460;28;20073;-73
2022/05/04 08:09:36;;;;;;;22.40;11.13;;;15.40;81.30;;;14.37;70.09;100796.72;5031719;28;20756;-73
2022/05/04 08:12:06;;;;;;;22.42;10.77;;;15.60;82.30;;;14.37;69.61;100791.25;5032126;28;20055;-74
2022/05/04 08:14:33;;;;;;;22.55;11.93;;;15.70;82.30;;;14.61;69.26;100785.28;5033483;28;20095;-73
2022/05/04 08:17:01;;;;;;;25.67;12.05;;;15.80;82.30;;;14.85;69.87;100781.16;5031815;28;20048;-73
2022/05/04 08:19:28;;;;;;;21.35;11.82;;;15.90;83.50;;;14.69;68.53;100775.19;5031288;28;20155;-73
2022/05/04 08:21:57;;;;;;;25.02;11.60;;;16.00;82.30;;;14.97;67.77;100778.66;5031231;28;20052;-73
2022/05/04 08:24:24;;;;;;;24.85;12.23;;;16.10;81.50;;;15.01;66.79;100782.66;5028367;28;20040;-73
2022/05/04 08:26:52;;;;;;;25.33;12.18;;;16.20;81.70;;;15.00;67.18;100785.59;5031457;28;20564;-73
2022/05/04 08:29:19;;;;;;;25.55;11.40;;;16.20;81.00;;;14.78;67.53;100788.50;5031735;28;20514;-72
2022/05/04 08:31:46;;;;;;;34.63;13.30;;;16.20;80.60;;;15.03;67.17;100780.56;5031236;28;20450;-75
2022/05/04 08:34:13;;;;;;;22.92;12.10;;;16.30;80.40;;;15.17;66.95;100777.84;5033596;28;20459;-76
2022/05/04 08:36:41;;;;;;;23.90;11.40;;;16.40;80.90;;;15.50;66.85;100775.13;5019750;28;20532;-76
2022/05/04 08:39:10;;;;;;;26.88;11.95;;;16.50;80.80;;;15.49;65.38;100775.34;5021622;28;20116;-74
2022/05/04 08:41:40;;;;;;;22.98;12.60;;;16.60;80.00;;;15.26;66.69;100776.59;5028307;28;20049;-77
2022/05/04 08:44:09;;;;;;;25.23;12.38;;;16.70;79.90;;;15.32;68.95;100774.91;5031787;28;20145;-76
2022/05/04 08:46:39;;;;;;;24.90;11.95;;;16.80;81.40;;;15.36;67.08;100776.16;5027917;28;20041;-77
2022/05/04 08:49:07;;;;;;;25.25;12.23;;;16.80;80.30;;;15.14;65.28;100778.28;5021989;28;20498;-76
2022/05/04 08:51:36;;;;;;;22.80;11.55;;;16.80;78.50;;;15.10;68.14;100777.84;5024483;28;20140;-76
2022/05/04 08:54:05;;;;;;;20.60;11.80;;;16.80;79.90;;;14.85;65.91;100778.41;5029201;28;20084;-76
2022/05/04 08:56:35;;;;;;;28.42;11.82;;;16.80;77.90;;;14.78;68.42;100779.44;5029579;28;20124;-76
2022/05/04 08:59:03;;;;;;;28.63;13.32;;;16.70;79.40;;;15.04;67.04;100774.03;5028112;28;20059;-76
2022/05/04 09:01:32;;;;;;;27.67;12.75;;;16.70;79.30;;;15.16;68.13;100776.16;5030674;28;20103;-76
2022/05/04 09:03:59;;;;;;;25.00;12.25;;;16.70;80.00;;;14.92;65.58;100778.41;5034910;28;20469;-76
2022/05/04 09:06:28;;;;;;;22.83;12.35;;;16.70;78.30;;;14.72;65.35;100775.63;5046356;28;20508;-76
2022/05/04 09:08:58;;;;;;;31.38;12.55;;;16.70;77.70;;;14.60;69.79;100774.50;5030188;28;20540;-76
2022/05/04 09:11:25;;;;;;;21.63;11.98;;;16.60;79.60;;;14.83;69.26;100777.78;5030850;28;20473;-76
2022/05/04 09:13:54;;;;;;;23.73;12.15;;;16.60;80.20;;;14.92;67.80;100777.56;5031770;28;20045;-76
2022/05/04 09:16:31;;;;;;;27.33;12.30;;;16.70;79.40;;;14.76;67.58;100776.91;5031000;28;20042;-76
2022/05/04 09:19:02;;;;;;;28.50;12.15;;;16.70;79.10;;;14.97;67.92;100772.31;5030644;28;20422;-76
2022/05/04 09:21:29;;;;;;;24.30;12.23;;;16.70;79.60;;;15.23;65.91;100768.75;5030907;28;20064;-75
2022/05/04 09:23:57;;;;;;;19.27;11.15;;;16.70;78.30;;;15.52;66.06;100769.44;5032141;28;20045;-76
2022/05/04 09:26:24;;;;;;;26.88;12.48;;;16.80;79.20;;;15.71;65.59;100762.25;5032002;28;20508;-76
2022/05/04 09:29:00;;;;;;;28.90;12.15;;;16.90;79.40;;;15.59;65.22;100768.38;5030439;28;20037;-76
2022/05/04 09:31:31;;;;;;;25.02;13.13;;;17.00;79.20;;;15.64;68.23;100765.84;5029744;28;20095;-76
2022/05/04 09:34:00;;;;;;;23.20;13.38;;;17.00;79.80;;;15.57;67.20;100761.41;5031822;28;20053;-76
2022/05/04 09:36:36;;;;;;;22.95;14.00;;;17.10;80.00;;;15.68;66.17;100757.19;5025802;28;20077;-76
2022/05/04 09:45:09;;;;;;;24.33;13.35;;;17.10;78.20;;;15.39;65.10;100762.06;5032101;28;20545;-76
2022/05/04 09:47:39;;;;;;;24.02;13.18;;;17.10;77.40;;;15.38;66.27;100763.97;5029802;28;20395;-76
2022/05/04 09:50:09;;;;;;;27.85;14.38;;;17.10;78.00;;;15.58;66.17;100760.38;5029989;28;20042;-76
2022/05/04 09:52:45;;;;;;;21.73;13.07;;;17.10;77.80;;;15.73;66.30;100754.66;5028845;28;20049;-76
2022/05/04 09:55:17;;;;;;;33.63;14.70;;;17.20;79.00;;;15.98;65.89;100757.59;5032459;28;20041;-76
2022/05/04 09:57:46;;;;;;;24.98;13.63;;;17.30;78.60;;;16.28;66.29;100752.44;5030146;28;20421;-76
2022/05/04 10:00:19;;;;;;;23.02;13.75;;;17.40;79.30;;;16.50;65.40;100749.41;5030273;28;20470;-76
2022/05/04 10:02:47;;;;;;;26.02;14.02;;;17.60;79.30;;;16.69;64.87;100748.44;5028917;28;20402;-76
2022/05/04 10:05:16;;;;;;;27.83;14.73;;;17.60;79.10;;;16.91;63.63;100753.69;5031315;28;20457;-76
2022/05/04 10:07:44;;;;;;;25.35;13.52;;;17.80;78.40;;;16.67;62.26;100756.06;5028077;28;20056;-76
2022/05/04 10:10:14;;;;;;;25.83;13.80;;;17.80;76.40;;;16.58;62.08;100752.75;5029301;28;20120;-76
2022/05/04 10:12:44;;;;;;;26.63;14.27;;;17.80;76.90;;;16.31;63.58;100754.75;5030167;28;20064;-76
2022/05/04 10:15:13;;;;;;;28.55;14.00;;;17.90;76.80;;;16.11;62.82;100751.25;5031266;28;20346;-76
2022/05/04 10:17:47;;;;;;;26.60;15.00;;;17.90;76.10;;;15.96;64.12;100749.56;5029855;28;20039;-76
2022/05/04 10:20:19;;;;;;;24.23;14.73;;;17.90;76.50;;;16.01;62.60;100743.44;5030169;28;20045;-76
2022/05/04 10:22:55;;;;;;;24.27;13.75;;;17.90;75.70;;;16.03;63.25;100750.41;5030205;28;20115;-76
2022/05/04 10:25:24;;;;;;;25.58;13.90;;;17.80;75.30;;;15.88;63.85;100755.31;5028661;28;20525;-76
2022/05/04 10:27:52;;;;;;;25.25;13.30;;;17.80;75.70;;;15.78;63.53;100757.63;5040452;28;20069;-76
2022/05/04 10:30:34;;;;;;;23.23;13.48;;;17.70;75.20;;;15.75;64.91;100758.06;5030027;28;20033;-76
2022/05/04 10:33:06;;;;;;;;;;;17.70;76.30;;;15.94;66.19;100756.34;5015499;28;20509;-76
2022/05/04 10:35:41;;;;;;;24.50;14.13;;;17.80;77.10;;;16.07;64.59;100745.34;5029059;28;20036;-76
2022/05/04 10:38:16;;;;;;;27.35;14.85;;;17.80;75.90;;;16.21;63.92;100741.47;5029696;28;20131;-76
2022/05/04 10:40:55;;;;;;;27.25;14.90;;;17.90;76.80;;;15.88;61.85;100741.56;5027833;28;20057;-76
2022/05/04 10:43:36;;;;;;;27.08;14.27;;;17.90;74.20;;;15.89;62.21;100745.16;5028721;28;20041;-76
2022/05/04 10:46:08;;;;;;;;;;;17.80;74.30;;;15.89;63.60;100737.75;5030519;28;20394;-76